Time;durP1;ratioP1;P1;durP2;ratioP2;P2;SDS_P1;SDS_P2;PMS_P1;PMS_P2;Temp;Humidity;BMP_temperature;BMP_pressure;BME280_temperature;BME280_humidity;BME280_pressure;Samples;Min_cycle;Max_cycle;Signal;HPM_P1;HPM_P2
2022/09/06 00:00:14;;;;;;;3.20;2.25;;;20.60;98.10;;;;;;5016214;28;20041;-79
2022/09/06 00:02:41;;;;;;;3.78;2.35;;;20.60;98.40;;;;;;5014691;28;20037;-79
2022/09/06 00:05:08;;;;;;;4.85;2.88;;;20.60;98.50;;;;;;5008568;28;20087;-79
2022/09/06 00:07:34;;;;;;;6.32;2.72;;;20.60;99.20;;;;;;5018416;28;20395;-79
2022/09/06 00:10:00;;;;;;;4.35;2.33;;;20.50;98.80;;;;;;5016784;28;20049;-79
2022/09/06 00:12:26;;;;;;;3.95;2.20;;;20.50;98.70;;;;;;5016263;28;20068;-79
2022/09/06 00:14:52;;;;;;;4.13;2.30;;;20.50;98.60;;;;;;5012156;28;20048;-79
2022/09/06 00:17:18;;;;;;;5.00;2.80;;;20.50;99.00;;;;;;5016193;28;20045;-79
2022/09/06 00:19:44;;;;;;;4.53;2.58;;;20.50;98.70;;;;;;5021239;28;20120;-79
2022/09/06 00:22:10;;;;;;;4.43;2.47;;;20.50;99.10;;;;;;5016773;28;20128;-79
2022/09/06 00:24:38;;;;;;;4.07;2.25;;;20.50;99.00;;;;;;5001162;28;20041;-79
2022/09/06 00:27:05;;;;;;;3.55;2.20;;;20.40;98.90;;;;;;5016088;28;20041;-79
2022/09/06 00:29:31;;;;;;;8.10;2.85;;;20.40;99.20;;;;;;5016118;28;20041;-79
2022/09/06 00:31:58;;;;;;;3.85;2.63;;;20.30;99.70;;;;;;5015616;28;20045;-79
2022/09/06 00:34:24;;;;;;;4.82;2.30;;;20.20;99.90;;;;;;5018780;28;20046;-79
2022/09/06 00:36:49;;;;;;;3.22;2.08;;;20.10;99.90;;;;;;5016468;28;20103;-79
2022/09/06 00:39:15;;;;;;;3.45;2.53;;;20.10;99.90;;;;;;4979245;28;20041;-79
2022/09/06 00:41:41;;;;;;;3.55;2.45;;;20.00;99.90;;;;;;4995029;28;20036;-79
2022/09/06 00:44:07;;;;;;;3.40;2.33;;;20.00;99.90;;;;;;5016231;28;20040;-79
2022/09/06 00:46:33;;;;;;;3.80;2.53;;;19.90;99.90;;;;;;5000059;28;20033;-79
2022/09/06 00:49:14;;;;;;;2.85;2.25;;;19.90;99.90;;;;;;4997753;28;20120;-80
2022/09/06 00:51:40;;;;;;;4.43;2.97;;;19.90;99.90;;;;;;5016814;28;20041;-80
2022/09/06 00:54:07;;;;;;;4.45;2.75;;;19.90;99.90;;;;;;5016419;28;20068;-80
2022/09/06 00:56:37;;;;;;;3.40;2.22;;;19.90;99.90;;;;;;5000023;28;20073;-80
2022/09/06 00:59:03;;;;;;;4.93;2.63;;;19.90;99.90;;;;;;5016103;28;20091;-80
2022/09/06 01:01:29;;;;;;;4.85;2.35;;;19.90;99.90;;;;;;4999017;28;20492;-80
2022/09/06 01:03:55;;;;;;;4.13;2.67;;;19.90;99.90;;;;;;4983241;28;20048;-79
2022/09/06 01:06:44;;;;;;;4.10;2.67;;;19.90;99.90;;;;;;5015718;28;20037;-79
2022/09/06 01:09:28;;;;;;;7.13;2.90;;;19.90;99.90;;;;;;5007860;28;20045;-79
2022/09/06 01:12:22;;;;;;;3.65;2.75;;;19.90;99.90;;;;;;5014836;28;20114;-79
2022/09/06 01:15:09;;;;;;;4.82;3.33;;;19.90;99.90;;;;;;5016179;28;20056;-79
2022/09/06 01:18:01;;;;;;;4.60;2.75;;;19.90;99.90;;;;;;5009634;28;20041;-79
2022/09/06 01:21:00;;;;;;;4.00;2.67;;;19.90;99.90;;;;;;5030856;28;20045;-80
2022/09/06 01:23:59;;;;;;;4.20;2.78;;;19.90;99.90;;;;;;5000215;28;20495;-80
2022/09/06 01:26:37;;;;;;;4.45;2.72;;;19.80;99.90;;;;;;5015734;28;20041;-80
2022/09/06 01:29:10;;;;;;;4.32;2.63;;;19.90;99.90;;;;;;5000482;28;20045;-80
2022/09/06 01:31:47;;;;;;;4.13;2.45;;;19.80;99.90;;;;;;4999418;28;20037;-80
2022/09/06 01:34:38;;;;;;;4.38;2.70;;;19.80;99.90;;;;;;5015123;28;20112;-80
2022/09/06 01:37:18;;;;;;;4.75;2.67;;;19.80;99.90;;;;;;5016044;28;20076;-80
2022/09/06 01:39:45;;;;;;;7.28;2.72;;;19.80;99.90;;;;;;5014622;28;20041;-80
2022/09/06 01:42:16;;;;;;;6.93;2.90;;;19.80;99.90;;;;;;5015799;28;20061;-80
2022/09/06 01:44:47;;;;;;;3.70;2.40;;;19.80;99.90;;;;;;4999593;28;20450;-80
2022/09/06 01:47:22;;;;;;;2.95;2.08;;;19.80;99.90;;;;;;5015209;28;20103;-80
2022/09/06 01:49:50;;;;;;;3.58;2.50;;;19.80;99.90;;;;;;5018531;28;20038;-80
2022/09/06 01:52:30;;;;;;;4.28;2.63;;;19.70;99.90;;;;;;5001622;28;20034;-80
2022/09/06 01:55:24;;;;;;;6.88;3.45;;;19.70;99.90;;;;;;5015711;28;20199;-80
2022/09/06 01:58:25;;;;;;;4.45;2.60;;;19.70;99.90;;;;;;5015190;28;20052;-80
2022/09/06 02:01:07;;;;;;;8.02;2.67;;;19.70;99.90;;;;;;5015448;28;20045;-80
2022/09/06 02:03:47;;;;;;;4.15;2.63;;;19.70;99.90;;;;;;5016280;28;20114;-80
2022/09/06 02:06:25;;;;;;;4.80;2.97;;;19.60;99.90;;;;;;4999357;28;20046;-80
2022/09/06 02:08:59;;;;;;;6.07;3.20;;;19.50;99.90;;;;;;4998530;28;20037;-80
2022/09/06 02:11:30;;;;;;;9.50;3.75;;;19.50;99.90;;;;;;5017319;28;20033;-80
2022/09/06 02:14:07;;;;;;;9.25;3.50;;;19.50;99.90;;;;;;4998967;28;20069;-80
2022/09/06 02:16:36;;;;;;;5.40;3.08;;;19.40;99.90;;;;;;5006840;28;20095;-80
2022/09/06 02:19:14;;;;;;;5.47;2.80;;;19.40;99.90;;;;;;4996141;28;20049;-81
2022/09/06 02:21:44;;;;;;;6.22;3.10;;;19.40;99.90;;;;;;5016860;28;20045;-80
2022/09/06 02:24:20;;;;;;;4.50;3.10;;;19.40;99.90;;;;;;5020321;28;20045;-80
2022/09/06 02:26:46;;;;;;;;;;;19.40;99.90;;;;;;5019917;28;20045;-80
2022/09/06 02:29:13;;;;;;;4.65;2.75;;;19.30;99.90;;;;;;5018883;28;19928;-79
2022/09/06 02:31:51;;;;;;;4.78;2.65;;;19.30;99.90;;;;;;5019108;28;20113;-79
2022/09/06 02:34:18;;;;;;;4.82;3.05;;;19.30;99.90;;;;;;5001733;28;20040;-79
2022/09/06 02:36:44;;;;;;;3.53;2.42;;;19.30;99.90;;;;;;5002300;28;20045;-79
2022/09/06 02:39:11;;;;;;;4.22;2.63;;;19.20;99.90;;;;;;5017906;28;20429;-79
2022/09/06 02:41:38;;;;;;;5.63;3.22;;;19.20;99.90;;;;;;5018383;28;20120;-79
2022/09/06 02:44:04;;;;;;;5.75;2.75;;;19.20;99.90;;;;;;5018188;28;20091;-79
2022/09/06 02:46:30;;;;;;;6.22;3.10;;;19.20;99.90;;;;;;5002293;28;20049;-79
2022/09/06 02:48:56;;;;;;;4.75;3.10;;;19.20;99.90;;;;;;5001089;28;20034;-79
2022/09/06 02:51:22;;;;;;;5.13;3.10;;;19.20;99.90;;;;;;5001382;28;20128;-79
2022/09/06 02:53:48;;;;;;;4.70;3.35;;;19.20;99.90;;;;;;5018962;28;20141;-78
2022/09/06 02:56:14;;;;;;;7.57;3.00;;;19.20;99.90;;;;;;5019101;28;20041;-79
2022/09/06 02:58:39;;;;;;;4.95;3.30;;;19.20;99.90;;;;;;5018518;28;20041;-78
2022/09/06 03:01:05;;;;;;;5.85;3.17;;;19.10;99.90;;;;;;5017533;28;20041;-78
2022/09/06 03:03:31;;;;;;;4.85;3.22;;;19.10;99.90;;;;;;4985133;28;20084;-79
2022/09/06 03:05:56;;;;;;;4.88;2.70;;;19.10;99.90;;;;;;5019907;28;20073;-79
2022/09/06 03:08:32;;;;;;;6.60;3.15;;;19.10;99.90;;;;;;5019201;28;20473;-79
2022/09/06 03:10:58;;;;;;;6.13;3.23;;;19.10;99.90;;;;;;5002217;28;20041;-79
2022/09/06 03:13:24;;;;;;;4.63;3.10;;;19.10;99.90;;;;;;5001108;28;20048;-79
2022/09/06 03:15:52;;;;;;;4.43;2.85;;;19.00;99.90;;;;;;5002443;28;20415;-79
2022/09/06 03:18:18;;;;;;;5.88;3.28;;;19.00;99.90;;;;;;5020476;28;20041;-81
2022/09/06 03:20:43;;;;;;;3.97;2.80;;;19.00;99.90;;;;;;5016955;28;20392;-80
2022/09/06 03:23:09;;;;;;;5.05;3.53;;;19.00;99.90;;;;;;5018910;28;20045;-80
2022/09/06 03:25:36;;;;;;;5.13;2.80;;;18.90;99.90;;;;;;5001786;28;20045;-80
2022/09/06 03:28:02;;;;;;;4.88;2.90;;;18.90;99.90;;;;;;5001229;28;20043;-80
2022/09/06 03:30:28;;;;;;;5.88;2.70;;;18.90;99.90;;;;;;5017620;28;20056;-80
2022/09/06 03:32:53;;;;;;;7.22;3.40;;;18.90;99.90;;;;;;5016867;28;20029;-80
2022/09/06 03:35:19;;;;;;;4.10;2.70;;;18.80;99.90;;;;;;5002764;28;20072;-79
2022/09/06 03:37:45;;;;;;;5.07;2.53;;;18.80;99.90;;;;;;4985164;28;20489;-79
2022/09/06 03:40:11;;;;;;;3.08;2.30;;;18.80;99.90;;;;;;5017118;28;20038;-79
2022/09/06 03:42:37;;;;;;;5.07;2.92;;;18.80;99.90;;;;;;5017180;28;20049;-79
2022/09/06 03:45:03;;;;;;;6.10;2.90;;;18.80;99.90;;;;;;5002237;28;20048;-79
2022/09/06 03:47:28;;;;;;;5.15;3.33;;;18.70;99.90;;;;;;5017361;28;20116;-79
2022/09/06 03:49:54;;;;;;;4.13;2.70;;;18.70;99.90;;;;;;5016975;28;20037;-79
2022/09/06 03:52:20;;;;;;;3.40;2.17;;;18.70;99.90;;;;;;5004258;28;20407;-78
2022/09/06 03:54:45;;;;;;;5.28;2.63;;;18.70;99.90;;;;;;5001493;28;20048;-79
2022/09/06 03:57:11;;;;;;;5.28;2.78;;;18.70;99.90;;;;;;5000691;28;20447;-78
2022/09/06 03:59:37;;;;;;;5.90;2.60;;;18.60;99.90;;;;;;5017864;28;20055;-79
2022/09/06 04:02:03;;;;;;;3.33;2.30;;;18.60;99.90;;;;;;5001279;28;20511;-78
2022/09/06 04:04:28;;;;;;;5.00;2.90;;;18.60;99.90;;;;;;5016920;28;20519;-78
2022/09/06 04:06:54;;;;;;;5.40;3.17;;;18.60;99.90;;;;;;5001287;28;20480;-79
2022/09/06 04:09:20;;;;;;;6.10;3.08;;;18.60;99.90;;;;;;5000641;28;20387;-80
2022/09/06 04:11:46;;;;;;;4.32;3.00;;;18.60;99.90;;;;;;5000933;28;20048;-80
2022/09/06 04:14:11;;;;;;;4.78;3.30;;;18.60;99.90;;;;;;5017360;28;20049;-80
2022/09/06 04:16:37;;;;;;;3.60;2.42;;;18.60;99.90;;;;;;5002490;28;20046;-80
2022/09/06 04:19:03;;;;;;;4.72;2.45;;;18.60;99.90;;;;;;5018686;28;20041;-81
2022/09/06 04:21:29;;;;;;;4.90;3.10;;;18.60;99.90;;;;;;5016130;28;20120;-80
2022/09/06 04:23:55;;;;;;;5.25;3.30;;;18.50;99.90;;;;;;5017295;28;20056;-78
2022/09/06 04:26:21;;;;;;;4.10;2.80;;;18.50;99.90;;;;;;4998742;28;20037;-79
2022/09/06 04:28:46;;;;;;;3.97;2.58;;;18.40;99.90;;;;;;5000278;28;20033;-78
2022/09/06 04:31:12;;;;;;;4.55;2.60;;;18.30;99.90;;;;;;5016952;28;20569;-78
2022/09/06 04:33:38;;;;;;;5.15;2.72;;;18.30;99.90;;;;;;5000273;28;20084;-78
2022/09/06 04:36:07;;;;;;;4.10;2.40;;;18.20;99.90;;;;;;5015886;28;20068;-78
2022/09/06 04:38:41;;;;;;;4.30;2.55;;;18.20;99.90;;;;;;5017424;28;20037;-78
2022/09/06 04:41:09;;;;;;;4.47;2.33;;;18.10;99.90;;;;;;5016149;28;20467;-80
2022/09/06 04:43:35;;;;;;;5.47;3.38;;;18.00;99.90;;;;;;4998992;28;20048;-80
2022/09/06 04:46:24;;;;;;;5.85;3.08;;;18.00;99.90;;;;;;5015814;28;20033;-80
2022/09/06 04:48:52;;;;;;;6.35;3.78;;;17.90;99.90;;;;;;5000382;28;20435;-80
2022/09/06 04:51:17;;;;;;;5.90;3.65;;;17.90;99.90;;;;;;5015775;28;20099;-80
2022/09/06 04:53:44;;;;;;;4.90;3.22;;;17.80;99.90;;;;;;5000063;28;20061;-80
2022/09/06 04:56:14;;;;;;;11.40;3.22;;;17.70;99.90;;;;;;5008195;28;20053;-80
2022/09/06 04:58:41;;;;;;;5.43;3.70;;;17.70;99.90;;;;;;5015129;28;20034;-80
2022/09/06 05:01:06;;;;;;;5.13;3.35;;;17.70;99.90;;;;;;5016315;28;20384;-80
2022/09/06 05:03:32;;;;;;;5.05;3.58;;;17.70;99.90;;;;;;5015373;28;20037;-80
2022/09/06 05:06:08;;;;;;;6.28;3.20;;;17.60;99.90;;;;;;5015801;28;20051;-80
2022/09/06 05:08:39;;;;;;;5.20;3.50;;;17.60;99.90;;;;;;5014370;28;20029;-80
2022/09/06 05:11:06;;;;;;;7.57;3.53;;;17.50;99.90;;;;;;4986865;28;20350;-80
2022/09/06 05:13:32;;;;;;;5.30;3.45;;;17.50;99.90;;;;;;5015721;28;20064;-80
2022/09/06 05:16:02;;;;;;;4.30;2.80;;;17.50;99.90;;;;;;4999977;28;20041;-80
2022/09/06 05:18:28;;;;;;;6.35;2.78;;;17.50;99.90;;;;;;4999030;28;20041;-81
2022/09/06 05:20:54;;;;;;;5.53;3.47;;;17.50;99.90;;;;;;4998732;28;20048;-80
2022/09/06 05:23:21;;;;;;;9.73;3.90;;;17.50;99.90;;;;;;4999687;28;20072;-80
2022/09/06 05:25:47;;;;;;;4.82;3.35;;;17.50;99.90;;;;;;4999995;28;20041;-80
2022/09/06 05:28:14;;;;;;;4.80;3.00;;;17.50;99.90;;;;;;4999312;28;20414;-81
2022/09/06 05:30:40;;;;;;;5.60;3.10;;;17.40;99.90;;;;;;5022289;28;20045;-80
2022/09/06 05:33:10;;;;;;;4.40;2.65;;;17.50;99.90;;;;;;4999079;28;20037;-81
2022/09/06 05:35:35;;;;;;;7.60;4.03;;;17.50;99.90;;;;;;5016466;28;20033;-81
2022/09/06 05:38:02;;;;;;;7.43;4.20;;;17.50;99.90;;;;;;4998779;28;20037;-81
2022/09/06 05:40:27;;;;;;;5.10;3.38;;;17.40;99.90;;;;;;4998721;28;20037;-81
2022/09/06 05:42:53;;;;;;;6.90;3.45;;;17.40;99.90;;;;;;5015891;28;20349;-80
2022/09/06 05:45:19;;;;;;;5.85;3.47;;;17.40;99.90;;;;;;4999851;28;20471;-80
2022/09/06 05:47:44;;;;;;;8.02;4.60;;;17.40;99.90;;;;;;4999564;28;20041;-80
2022/09/06 05:50:10;;;;;;;7.07;4.03;;;17.40;99.90;;;;;;5014422;28;20515;-80
2022/09/06 05:52:37;;;;;;;5.93;4.53;;;17.40;99.90;;;;;;5017843;28;20052;-80
2022/09/06 05:55:03;;;;;;;8.48;4.00;;;17.40;99.90;;;;;;5015941;28;20057;-81
2022/09/06 05:57:29;;;;;;;5.10;3.90;;;17.40;99.90;;;;;;5019653;28;20369;-80
2022/09/06 05:59:54;;;;;;;10.27;4.85;;;17.40;99.90;;;;;;5019910;28;20053;-80
2022/09/06 06:02:21;;;;;;;6.90;4.32;;;17.40;99.90;;;;;;5017940;28;20045;-80
2022/09/06 06:04:47;;;;;;;6.43;3.95;;;17.40;99.90;;;;;;5016299;28;20041;-78
2022/09/06 06:07:13;;;;;;;6.07;3.80;;;17.40;99.90;;;;;;5011566;28;20053;-78
2022/09/06 06:09:40;;;;;;;6.20;3.90;;;17.40;99.90;;;;;;5019191;28;20052;-78
2022/09/06 06:12:06;;;;;;;5.85;4.15;;;17.40;99.90;;;;;;5018533;28;20053;-78
2022/09/06 06:14:32;;;;;;;7.53;4.28;;;17.40;99.90;;;;;;5018562;28;20045;-78
2022/09/06 06:16:58;;;;;;;7.70;4.13;;;17.40;99.90;;;;;;5024412;28;20048;-78
2022/09/06 06:19:25;;;;;;;7.53;4.57;;;17.50;99.90;;;;;;5008276;28;20056;-78
2022/09/06 06:21:51;;;;;;;6.07;3.85;;;17.50;99.90;;;;;;5018330;28;20094;-80
2022/09/06 06:24:17;;;;;;;6.90;4.28;;;17.50;99.90;;;;;;4993334;28;20099;-81
2022/09/06 06:26:43;;;;;;;7.15;4.03;;;17.60;99.90;;;;;;5010277;28;20120;-81
2022/09/06 06:29:08;;;;;;;5.57;3.90;;;17.70;99.90;;;;;;5001960;28;20045;-80
2022/09/06 06:31:35;;;;;;;6.50;3.92;;;17.80;99.90;;;;;;5012192;28;20095;-80
2022/09/06 06:34:04;;;;;;;8.90;4.47;;;17.90;99.90;;;;;;5007565;28;20117;-80
2022/09/06 06:36:32;;;;;;;8.23;4.43;;;17.90;99.90;;;;;;4999147;28;20116;-80
2022/09/06 06:38:59;;;;;;;6.60;3.85;;;18.00;99.90;;;;;;5017191;28;20055;-78
2022/09/06 06:41:28;;;;;;;8.55;3.45;;;18.00;99.90;;;;;;4985674;28;20121;-78
2022/09/06 06:43:59;;;;;;;5.43;3.35;;;18.10;99.90;;;;;;5018195;28;20048;-78
2022/09/06 06:46:36;;;;;;;4.93;3.47;;;18.20;99.90;;;;;;5019012;28;20088;-78
2022/09/06 06:49:02;;;;;;;4.93;3.40;;;18.30;99.90;;;;;;5017217;28;20077;-78
2022/09/06 06:51:30;;;;;;;8.30;4.07;;;18.40;99.90;;;;;;5017171;28;20473;-78
2022/09/06 06:53:56;;;;;;;7.47;4.53;;;18.50;99.90;;;;;;5018200;28;20100;-80
2022/09/06 06:56:31;;;;;;;6.68;4.10;;;18.70;99.90;;;;;;5018884;28;20092;-80
2022/09/06 06:58:59;;;;;;;7.57;4.50;;;19.30;99.90;;;;;;5019154;28;20534;-80
2022/09/06 07:01:27;;;;;;;7.55;4.15;;;20.80;99.90;;;;;;5015821;28;20049;-80
2022/09/06 07:03:53;;;;;;;6.63;4.32;;;22.80;99.90;;;;;;4998590;28;20038;-80
2022/09/06 07:06:20;;;;;;;4.88;3.38;;;24.50;99.90;;;;;;5011888;28;20068;-81
2022/09/06 07:08:46;;;;;;;5.75;3.70;;;26.20;99.40;;;;;;5023067;23;20509;-80
2022/09/06 07:11:14;;;;;;;5.80;3.85;;;27.40;93.80;;;;;;5010357;28;20041;-78
2022/09/06 07:13:41;;;;;;;4.65;3.25;;;27.40;90.90;;;;;;5000361;28;20086;-78
2022/09/06 07:16:18;;;;;;;5.72;3.38;;;28.10;90.80;;;;;;5004412;28;20120;-78
2022/09/06 07:18:45;;;;;;;4.55;3.10;;;28.40;91.00;;;;;;5017420;28;20113;-78
2022/09/06 07:21:18;;;;;;;9.02;3.67;;;29.10;88.80;;;;;;5006199;28;20042;-78
2022/09/06 07:23:44;;;;;;;7.10;3.40;;;29.60;89.30;;;;;;5017889;28;20044;-79
2022/09/06 07:26:18;;;;;;;7.60;3.22;;;29.40;86.70;;;;;;5017994;28;20038;-79
2022/09/06 07:28:45;;;;;;;5.05;3.40;;;29.70;86.00;;;;;;5017949;28;20069;-79
2022/09/06 07:31:11;;;;;;;5.45;3.60;;;29.70;84.60;;;;;;5014397;28;20104;-78
2022/09/06 07:33:38;;;;;;;5.95;3.15;;;29.60;83.60;;;;;;5005741;28;20050;-78
2022/09/06 07:36:06;;;;;;;6.70;3.20;;;29.50;82.60;;;;;;5017155;28;20436;-79
2022/09/06 07:38:32;;;;;;;5.28;3.38;;;29.40;85.10;;;;;;5007981;28;20045;-79
2022/09/06 07:41:00;;;;;;;5.63;3.67;;;29.60;84.30;;;;;;5008604;28;20052;-79
2022/09/06 07:43:27;;;;;;;4.70;3.30;;;29.60;84.10;;;;;;5031052;28;20041;-78
2022/09/06 07:46:07;;;;;;;5.40;3.50;;;30.10;81.90;;;;;;5017033;28;20116;-81
2022/09/06 07:48:34;;;;;;;5.22;3.05;;;30.90;83.20;;;;;;5015357;28;20044;-81
2022/09/06 07:51:06;;;;;;;6.05;3.67;;;30.30;82.10;;;;;;5012005;28;20046;-80
2022/09/06 07:53:32;;;;;;;5.25;3.47;;;28.80;81.70;;;;;;4999791;28;20457;-81
2022/09/06 07:56:03;;;;;;;4.63;3.40;;;27.80;84.70;;;;;;5013884;28;20503;-80
2022/09/06 07:58:29;;;;;;;5.38;3.58;;;26.70;87.30;;;;;;5007936;28;20033;-81
2022/09/06 08:01:33;;;;;;;5.78;3.65;;;26.70;89.20;;;;;;5010127;28;20463;-79
2022/09/06 08:04:06;;;;;;;7.55;3.60;;;27.20;88.70;;;;;;5008719;28;20556;-79
2022/09/06 08:06:34;;;;;;;5.50;3.85;;;28.60;86.20;;;;;;5010827;28;20104;-79
2022/09/06 08:09:01;;;;;;;6.50;3.55;;;29.20;84.50;;;;;;5007742;28;20088;-81
2022/09/06 08:11:30;;;;;;;5.57;3.72;;;29.20;84.20;;;;;;5006792;28;20537;-79
2022/09/06 08:13:57;;;;;;;4.35;3.05;;;28.80;84.30;;;;;;5016331;28;20053;-78
2022/09/06 08:16:24;;;;;;;5.88;3.88;;;29.60;83.90;;;;;;5016662;28;20056;-79
2022/09/06 08:18:55;;;;;;;3.42;2.80;;;30.20;83.70;;;;;;4997361;28;20053;-79
2022/09/06 08:21:23;;;;;;;4.50;3.28;;;31.10;83.00;;;;;;5015701;28;20427;-80
2022/09/06 08:23:51;;;;;;;5.95;3.45;;;31.90;79.80;;;;;;5016976;28;20033;-79
2022/09/06 08:26:20;;;;;;;5.53;3.58;;;32.40;78.00;;;;;;4998737;28;20188;-79
2022/09/06 08:28:46;;;;;;;4.30;3.08;;;32.80;77.20;;;;;;4998626;28;20104;-79
2022/09/06 08:31:14;;;;;;;5.25;3.00;;;33.60;76.40;;;;;;5000438;28;20415;-80
2022/09/06 08:33:40;;;;;;;6.32;3.17;;;33.80;75.80;;;;;;5019697;28;20037;-81
2022/09/06 08:36:07;;;;;;;4.97;2.90;;;34.40;74.60;;;;;;5008565;28;20053;-81
2022/09/06 08:38:33;;;;;;;4.47;2.67;;;35.00;74.90;;;;;;5029092;28;20046;-81
2022/09/06 08:41:31;;;;;;;6.60;3.05;;;35.90;73.00;;;;;;5032422;28;20044;-81
2022/09/06 08:44:07;;;;;;;5.15;3.42;;;35.80;71.80;;;;;;5015062;28;20056;-81
2022/09/06 08:46:46;;;;;;;4.50;3.42;;;35.70;72.50;;;;;;5000107;28;20041;-81
2022/09/06 08:49:12;;;;;;;5.15;3.08;;;35.80;70.70;;;;;;5016274;28;20072;-81
2022/09/06 08:52:04;;;;;;;3.83;2.88;;;36.20;70.40;;;;;;5016314;28;20069;-80
2022/09/06 08:54:44;;;;;;;5.40;3.38;;;35.90;70.00;;;;;;5015320;28;20048;-80
2022/09/06 08:57:22;;;;;;;4.35;2.70;;;34.80;70.20;;;;;;4997203;28;20452;-79
2022/09/06 08:59:53;;;;;;;3.90;2.65;;;33.70;72.10;;;;;;5015995;28;20045;-79
2022/09/06 09:02:20;;;;;;;4.28;2.90;;;32.60;74.40;;;;;;5015489;28;20045;-79
2022/09/06 09:04:50;;;;;;;6.95;3.35;;;32.00;74.80;;;;;;5010341;28;20041;-80
2022/09/06 09:07:45;;;;;;;3.90;2.58;;;31.20;76.70;;;;;;5012565;28;20542;-79
2022/09/06 09:10:17;;;;;;;6.22;3.17;;;31.00;78.20;;;;;;5007636;28;21653;-79
2022/09/06 09:12:46;;;;;;;7.57;4.00;;;31.10;78.50;;;;;;5014227;28;20103;-79
2022/09/06 09:15:15;;;;;;;3.47;2.60;;;31.20;77.60;;;;;;5011858;28;20092;-79
2022/09/06 09:17:42;;;;;;;5.07;2.90;;;32.30;78.50;;;;;;5008598;28;20052;-79
2022/09/06 09:20:09;;;;;;;3.85;2.60;;;33.30;76.60;;;;;;5014252;28;20427;-79
2022/09/06 09:22:36;;;;;;;4.22;2.95;;;34.30;74.00;;;;;;5031093;28;20037;-79
2022/09/06 09:25:04;;;;;;;4.47;2.90;;;34.50;74.40;;;;;;5007175;28;20545;-79
2022/09/06 09:27:32;;;;;;;4.35;2.83;;;35.00;73.00;;;;;;5008992;28;20490;-79
2022/09/06 09:30:00;;;;;;;4.05;2.60;;;35.80;72.00;;;;;;5015051;28;20388;-80
2022/09/06 09:32:36;;;;;;;5.78;3.08;;;36.40;71.20;;;;;;5015829;28;20037;-80
2022/09/06 09:35:16;;;;;;;3.67;2.85;;;36.70;70.60;;;;;;5000008;28;20049;-79
2022/09/06 09:37:42;;;;;;;4.10;2.75;;;36.10;70.10;;;;;;5012014;28;20034;-79
2022/09/06 09:40:16;;;;;;;5.22;2.92;;;36.60;71.40;;;;;;5013744;28;20518;-80
2022/09/06 09:42:43;;;;;;;3.90;2.72;;;36.50;69.90;;;;;;5009104;28;20049;-80
2022/09/06 09:45:29;;;;;;;3.50;2.17;;;36.30;71.30;;;;;;5018350;28;20080;-80
2022/09/06 09:47:55;;;;;;;5.05;2.88;;;36.70;69.90;;;;;;5008956;28;20037;-80
2022/09/06 09:50:30;;;;;;;3.30;2.80;;;36.80;68.70;;;;;;5013916;28;20042;-80
2022/09/06 09:53:05;;;;;;;;;;;36.70;69.50;;;;;;5014178;28;20437;-80
2022/09/06 09:55:31;;;;;;;6.03;3.00;;;36.30;70.40;;;;;;5015530;28;19967;-80
2022/09/06 09:57:58;;;;;;;4.05;2.90;;;36.60;70.80;;;;;;5019525;28;20467;-80
2022/09/06 10:00:40;;;;;;;3.67;2.92;;;36.70;69.10;;;;;;5024060;28;20050;-79
2022/09/06 10:03:14;;;;;;;4.55;2.47;;;35.40;69.70;;;;;;5007443;28;20081;-80
2022/09/06 10:05:41;;;;;;;5.40;2.63;;;36.00;71.20;;;;;;5021470;28;20472;-80
2022/09/06 10:08:11;;;;;;;3.28;2.30;;;36.00;69.20;;;;;;5026720;28;20089;-79
2022/09/06 10:10:45;;;;;;;3.95;2.53;;;36.30;69.00;;;;;;4992871;28;20499;-79
2022/09/06 10:13:23;;;;;;;6.03;2.77;;;36.20;69.00;;;;;;5013531;28;20103;-80
2022/09/06 10:15:51;;;;;;;4.70;2.58;;;35.70;69.30;;;;;;5012649;28;20483;-81
2022/09/06 10:18:19;;;;;;;3.85;2.38;;;36.00;68.90;;;;;;5013657;28;20052;-82
2022/09/06 10:21:03;;;;;;;4.80;2.42;;;36.10;69.70;;;;;;5008964;28;20038;-81
2022/09/06 10:23:40;;;;;;;4.93;2.65;;;36.10;68.60;;;;;;4996763;28;20048;-81
2022/09/06 10:26:22;;;;;;;3.72;2.30;;;36.30;67.70;;;;;;5014887;28;20051;-81
2022/09/06 10:28:57;;;;;;;4.88;2.83;;;36.50;67.90;;;;;;5014258;28;20045;-81
2022/09/06 10:31:34;;;;;;;3.10;2.17;;;36.00;68.60;;;;;;5015631;28;20029;-80
2022/09/06 10:34:06;;;;;;;4.15;2.70;;;36.60;67.60;;;;;;5015079;28;20038;-80
2022/09/06 10:36:39;;;;;;;3.13;1.80;;;36.80;68.30;;;;;;5011119;28;20522;-80
2022/09/06 10:39:35;;;;;;;3.78;2.42;;;37.20;68.30;;;;;;5004974;28;20048;-80
2022/09/06 10:42:07;;;;;;;4.07;2.33;;;37.50;67.40;;;;;;5014456;28;20088;-80
2022/09/06 10:44:48;;;;;;;4.50;2.50;;;37.30;67.80;;;;;;5010789;28;20438;-80
2022/09/06 10:47:15;;;;;;;4.35;2.63;;;36.50;68.00;;;;;;5006585;28;20042;-82
2022/09/06 10:49:49;;;;;;;4.28;2.47;;;35.80;68.60;;;;;;5018256;28;20116;-82
2022/09/06 10:52:40;;;;;;;5.50;2.38;;;36.20;68.10;;;;;;5010421;28;20033;-82
2022/09/06 10:55:10;;;;;;;2.38;1.80;;;35.80;67.70;;;;;;5013021;28;20053;-82
2022/09/06 10:57:56;;;;;;;3.38;2.10;;;35.70;67.20;;;;;;5028609;28;20045;-82
2022/09/06 11:00:21;;;;;;;2.90;2.20;;;35.80;67.60;;;;;;5013405;28;20506;-82
2022/09/06 11:03:48;;;;;;;3.42;1.92;;;36.00;67.50;;;;;;5007348;28;20159;-82
2022/09/06 11:06:14;;;;;;;3.17;2.03;;;36.20;68.40;;;;;;4917887;29;20107;-82
2022/09/06 11:08:47;;;;;;;4.53;2.20;;;36.10;68.50;;;;;;4918676;29;20051;-81
2022/09/06 11:11:23;;;;;;;3.65;2.17;;;35.30;68.10;;;;;;4965001;28;20541;-81
2022/09/06 11:13:48;;;;;;;3.08;2.13;;;35.10;68.70;;;;;;5013008;28;20475;-81
2022/09/06 11:16:34;;;;;;;3.33;2.05;;;35.30;68.10;;;;;;5014145;28;20038;-82
2022/09/06 11:19:30;;;;;;;2.88;2.10;;;35.80;67.70;;;;;;5031285;28;20049;-82
2022/09/06 11:22:11;;;;;;;3.63;2.30;;;35.50;67.70;;;;;;4994987;28;20045;-81
2022/09/06 11:25:04;;;;;;;2.60;1.90;;;35.90;68.30;;;;;;5011003;28;20053;-80
2022/09/06 11:27:30;;;;;;;3.50;2.10;;;35.80;68.50;;;;;;5013977;28;20034;-80
2022/09/06 11:29:57;;;;;;;3.78;2.25;;;35.90;67.90;;;;;;5011179;28;20403;-80
2022/09/06 11:32:38;;;;;;;2.38;1.63;;;35.80;67.60;;;;;;5010301;28;20037;-80
2022/09/06 11:35:08;;;;;;;3.50;1.98;;;35.20;67.70;;;;;;4992145;28;20033;-81
2022/09/06 11:37:43;;;;;;;2.63;1.70;;;34.60;67.90;;;;;;5009371;28;20068;-81
2022/09/06 11:40:14;;;;;;;3.15;1.80;;;34.80;68.10;;;;;;5007005;28;20065;-83
2022/09/06 11:43:01;;;;;;;2.97;1.95;;;34.50;69.00;;;;;;5006491;28;20040;-80
2022/09/06 11:45:46;;;;;;;1.83;1.60;;;34.30;69.60;;;;;;5012680;28;20129;-80
2022/09/06 11:48:33;;;;;;;;;;;34.40;70.00;;;;;;4993282;28;20038;-80
2022/09/06 11:51:05;;;;;;;5.25;1.70;;;34.60;69.20;;;;;;4999589;28;19917;-81
2022/09/06 11:53:57;;;;;;;3.35;2.30;;;34.60;70.20;;;;;;5017480;28;20041;-81
2022/09/06 11:56:34;;;;;;;2.30;1.88;;;34.60;70.30;;;;;;5017954;28;20033;-80
2022/09/06 11:59:33;;;;;;;2.92;2.00;;;34.90;69.20;;;;;;5012606;28;20049;-80
2022/09/06 12:02:26;;;;;;;2.42;1.67;;;35.10;68.10;;;;;;4991853;28;20042;-80
2022/09/06 12:04:59;;;;;;;3.15;1.85;;;35.30;68.10;;;;;;5034020;28;20037;-80
2022/09/06 12:07:26;;;;;;;1.95;1.30;;;35.20;67.90;;;;;;5017210;28;20033;-80
2022/09/06 12:09:53;;;;;;;2.30;1.50;;;35.30;69.00;;;;;;5002225;28;20053;-80
2022/09/06 12:12:43;;;;;;;2.28;1.70;;;35.40;67.30;;;;;;5001206;28;20052;-80
2022/09/06 12:15:28;;;;;;;2.13;1.35;;;35.30;67.50;;;;;;5011862;28;20041;-80
2022/09/06 12:17:55;;;;;;;2.92;1.77;;;35.60;68.30;;;;;;5010118;28;20064;-80
2022/09/06 12:20:50;;;;;;;2.65;1.70;;;35.60;66.90;;;;;;5010912;28;20064;-80
2022/09/06 12:23:33;;;;;;;3.17;1.80;;;35.80;69.30;;;;;;5006876;28;20068;-80
2022/09/06 12:26:01;;;;;;;2.60;1.77;;;35.10;66.90;;;;;;4988745;28;20053;-81
2022/09/06 12:28:33;;;;;;;5.88;2.00;;;34.90;68.20;;;;;;5031111;28;20045;-81
2022/09/06 12:31:00;;;;;;;3.15;1.98;;;34.80;68.00;;;;;;5011094;28;20046;-81
2022/09/06 12:33:32;;;;;;;2.30;1.58;;;33.30;68.30;;;;;;5000095;28;20033;-81
2022/09/06 12:36:22;;;;;;;2.85;1.70;;;33.20;69.90;;;;;;5030378;28;20046;-81
2022/09/06 12:39:00;;;;;;;2.83;1.90;;;33.50;70.60;;;;;;5009243;28;20365;-81
2022/09/06 12:41:28;;;;;;;3.40;1.85;;;33.40;69.70;;;;;;5008978;28;20065;-81
2022/09/06 12:43:57;;;;;;;2.50;1.45;;;33.10;69.90;;;;;;5008612;28;20176;-81
2022/09/06 12:46:24;;;;;;;3.28;1.95;;;32.70;70.00;;;;;;5006407;28;20053;-81
2022/09/06 12:49:11;;;;;;;2.45;1.58;;;32.50;70.90;;;;;;5010006;28;20517;-80
2022/09/06 12:51:39;;;;;;;2.53;1.73;;;32.90;70.70;;;;;;5016581;28;20510;-81
2022/09/06 12:54:22;;;;;;;2.47;1.70;;;33.00;69.90;;;;;;5016610;28;20049;-81
2022/09/06 12:56:48;;;;;;;2.47;1.70;;;32.40;70.50;;;;;;5007019;28;20041;-81
2022/09/06 12:59:20;;;;;;;2.42;1.90;;;32.10;71.70;;;;;;5003887;28;20084;-81
2022/09/06 13:01:49;;;;;;;10.57;2.17;;;32.20;71.80;;;;;;5002074;28;20068;-80
2022/09/06 13:04:32;;;;;;;3.65;1.80;;;32.50;73.10;;;;;;5014370;28;20491;-81
2022/09/06 13:07:01;;;;;;;2.58;1.70;;;32.30;72.10;;;;;;5016196;28;20578;-81
2022/09/06 13:09:28;;;;;;;3.92;2.33;;;32.30;72.80;;;;;;4999427;28;20045;-81